createdAt,value
2018-04-24T00:00:54.214Z,65.20
2018-04-24T00:03:20.164Z,64.70
2018-04-24T00:05:46.112Z,64.17
2018-04-24T00:08:12.049Z,63.99
2018-04-24T00:10:37.969Z,64.39
2018-04-24T00:13:03.890Z,64.41
2018-04-24T00:15:29.816Z,64.27
2018-04-24T00:17:55.763Z,64.74
2018-04-24T00:20:21.741Z,64.49
2018-04-24T00:22:47.692Z,64.45
2018-04-24T00:25:13.645Z,64.45
2018-04-24T00:27:39.576Z,64.82
2018-04-24T00:30:05.527Z,64.99
2018-04-24T00:32:31.476Z,64.51
2018-04-24T00:34:57.405Z,64.46
2018-04-24T00:37:23.325Z,63.96
2018-04-24T00:39:49.275Z,64.36
2018-04-24T00:44:47.641Z,65.33
2018-04-24T00:47:13.561Z,65.00
2018-04-24T00:49:39.516Z,64.83
2018-04-24T00:52:05.456Z,64.05
2018-04-24T00:54:31.416Z,63.32
2018-04-24T00:56:57.343Z,63.20
2018-04-24T00:59:23.299Z,63.21
2018-04-24T01:01:49.227Z,63.13
2018-04-24T01:04:15.180Z,63.81
2018-04-24T01:06:41.131Z,63.44
2018-04-24T01:09:07.100Z,64.32
2018-04-24T01:11:33.048Z,63.90
2018-04-24T01:13:58.986Z,63.55
2018-04-24T01:16:24.906Z,63.45
2018-04-24T01:18:50.850Z,63.28
2018-04-24T01:21:16.783Z,63.92
2018-04-24T01:23:42.701Z,63.99
2018-04-24T01:26:08.642Z,64.41
2018-04-24T01:28:34.564Z,64.70
2018-04-24T01:31:00.498Z,64.85
2018-04-24T01:33:26.439Z,64.98
2018-04-24T01:35:52.380Z,65.07
2018-04-24T01:38:18.301Z,65.43
2018-04-24T01:40:44.218Z,65.79
2018-04-24T01:43:10.132Z,64.31
2018-04-24T01:45:36.076Z,65.17
2018-04-24T01:48:02.024Z,65.35
2018-04-24T01:50:27.963Z,64.96
2018-04-24T01:52:53.893Z,65.14
2018-04-24T01:55:19.837Z,64.48
2018-04-24T01:57:45.786Z,64.62
2018-04-24T02:00:11.732Z,63.93
2018-04-24T02:02:37.665Z,64.68
2018-04-24T02:05:03.585Z,64.99
2018-04-24T02:07:29.540Z,64.94
2018-04-24T02:09:55.500Z,64.38
2018-04-24T02:12:21.470Z,63.54
2018-04-24T02:14:47.416Z,63.45
2018-04-24T02:17:13.336Z,63.25
2018-04-24T02:19:39.278Z,63.83
2018-04-24T02:22:05.208Z,63.50
2018-04-24T02:24:31.149Z,63.02
2018-04-24T02:26:57.077Z,63.34
2018-04-24T02:29:23.025Z,64.06
2018-04-24T02:31:48.963Z,63.31
2018-04-24T02:34:14.889Z,62.63
2018-04-24T02:36:40.824Z,63.24
2018-04-24T02:39:06.750Z,63.27
2018-04-24T02:41:32.692Z,63.49
2018-04-24T02:43:58.647Z,63.46
2018-04-24T02:46:24.599Z,65.04
2018-04-24T02:48:50.542Z,65.10
2018-04-24T02:51:16.486Z,64.68
2018-04-24T02:53:42.483Z,64.17
2018-04-24T02:56:08.367Z,64.51
2018-04-24T02:58:34.295Z,64.85
2018-04-24T03:01:00.256Z,65.61
2018-04-24T03:03:26.206Z,66.12
2018-04-24T03:05:52.126Z,66.25
2018-04-24T03:08:18.047Z,66.69
2018-04-24T03:10:43.997Z,66.82
2018-04-24T03:13:09.944Z,66.26
2018-04-24T03:15:35.866Z,66.08
2018-04-24T03:18:01.795Z,66.79
2018-04-24T03:20:27.724Z,66.77
2018-04-24T03:22:53.692Z,66.31
2018-04-24T03:25:19.636Z,66.48
2018-04-24T03:27:45.586Z,66.78
2018-04-24T03:30:11.536Z,66.59
2018-04-24T03:32:37.476Z,67.17
2018-04-24T03:35:03.424Z,66.92
2018-04-24T03:37:29.348Z,67.26
2018-04-24T03:39:55.265Z,66.53
2018-04-24T03:42:21.199Z,66.96
2018-04-24T03:44:47.120Z,66.83
2018-04-24T03:47:13.045Z,66.97
2018-04-24T03:49:38.965Z,67.83
2018-04-24T03:52:04.885Z,67.66
2018-04-24T03:54:30.827Z,66.48
2018-04-24T03:56:56.749Z,65.86
2018-04-24T03:59:22.675Z,66.22
2018-04-24T04:01:48.621Z,67.39
2018-04-24T04:04:14.576Z,66.92
2018-04-24T04:06:40.532Z,66.73
2018-04-24T04:09:06.517Z,66.40
2018-04-24T04:11:32.453Z,67.68
2018-04-24T04:13:58.381Z,68.09
2018-04-24T04:16:24.316Z,68.10
2018-04-24T04:18:50.280Z,68.56
2018-04-24T04:21:16.236Z,69.28
2018-04-24T04:23:43.205Z,68.89
2018-04-24T04:26:09.155Z,68.57
2018-04-24T04:28:35.081Z,66.86
2018-04-24T04:31:01.052Z,66.84
2018-04-24T04:33:26.977Z,66.95
2018-04-24T04:35:52.937Z,67.26
2018-04-24T04:38:18.891Z,67.31
2018-04-24T04:40:44.834Z,67.26
2018-04-24T04:43:10.777Z,66.50
2018-04-24T04:45:36.725Z,67.17
2018-04-24T04:48:02.683Z,68.08
2018-04-24T04:50:28.635Z,67.93
2018-04-24T04:52:54.602Z,66.85
2018-04-24T04:55:20.549Z,66.45
2018-04-24T04:57:46.495Z,66.74
2018-04-24T05:00:12.437Z,66.58
2018-04-24T05:02:38.381Z,67.25
2018-04-24T05:05:04.349Z,66.82
2018-04-24T05:07:30.280Z,67.15
2018-04-24T05:09:56.250Z,65.40
2018-04-24T05:12:22.158Z,65.20
2018-04-24T05:14:48.099Z,65.80
2018-04-24T05:17:14.055Z,64.65
2018-04-24T05:19:40.008Z,64.82
2018-04-24T05:22:05.963Z,63.46
2018-04-24T05:24:31.897Z,63.43
2018-04-24T05:26:57.855Z,62.55
2018-04-24T05:29:23.798Z,62.89
2018-04-24T05:31:49.765Z,63.83
2018-04-24T05:34:15.724Z,63.69
2018-04-24T05:36:41.690Z,63.14
2018-04-24T05:39:07.633Z,63.28
2018-04-24T05:41:33.589Z,62.51
2018-04-24T05:43:59.519Z,61.62
2018-04-24T05:46:25.450Z,61.06
2018-04-24T05:48:51.385Z,60.42
2018-04-24T05:51:17.301Z,60.56
2018-04-24T05:53:43.224Z,60.95
2018-04-24T05:56:09.186Z,60.60
2018-04-24T05:58:35.127Z,59.39
2018-04-24T06:01:01.084Z,58.87
2018-04-24T06:03:27.023Z,58.93
2018-04-24T06:05:52.955Z,58.59
2018-04-24T06:08:18.912Z,57.34
2018-04-24T06:10:44.878Z,55.94
2018-04-24T06:13:10.834Z,55.50
2018-04-24T06:15:36.772Z,54.65
2018-04-24T06:18:02.707Z,54.37
2018-04-24T06:20:28.658Z,53.97
2018-04-24T06:22:54.605Z,53.09
2018-04-24T06:25:20.557Z,53.24
2018-04-24T06:27:46.508Z,53.43
2018-04-24T06:30:12.475Z,53.23
2018-04-24T06:32:38.404Z,53.21
2018-04-24T06:35:04.329Z,54.30
2018-04-24T06:37:30.269Z,54.84
2018-04-24T06:39:56.200Z,55.41
2018-04-24T06:42:22.213Z,56.40
2018-04-24T06:44:48.091Z,56.25
2018-04-24T06:47:14.090Z,57.30
2018-04-24T06:49:40.029Z,57.09
2018-04-24T06:52:05.976Z,56.73
2018-04-24T06:54:31.927Z,56.01
2018-04-24T06:56:57.876Z,56.41
2018-04-24T06:59:23.843Z,55.63
2018-04-24T07:01:49.797Z,54.96
2018-04-24T07:04:15.748Z,53.51
2018-04-24T07:06:41.668Z,52.23
2018-04-24T07:09:07.593Z,50.10
2018-04-24T07:11:33.513Z,50.37
2018-04-24T07:13:59.463Z,53.88
2018-04-24T07:16:25.388Z,54.84
2018-04-24T07:18:51.322Z,52.30
2018-04-24T07:21:17.274Z,51.61
2018-04-24T07:23:43.259Z,51.12
2018-04-24T07:26:09.201Z,50.11
2018-04-24T07:28:35.165Z,53.31
2018-04-24T07:31:01.132Z,55.25
2018-04-24T07:33:27.073Z,50.77
2018-04-24T07:35:53.020Z,47.00
2018-04-24T07:38:18.973Z,45.31
2018-04-24T07:40:44.937Z,44.24
2018-04-24T07:43:10.893Z,44.45
2018-04-24T07:45:36.845Z,42.59
2018-04-24T07:48:02.813Z,41.15
2018-04-24T07:50:30.780Z,42.18
2018-04-24T07:52:56.726Z,42.05
2018-04-24T07:55:22.679Z,41.93
2018-04-24T07:57:48.637Z,40.54
2018-04-24T08:00:14.608Z,41.02
2018-04-24T08:02:40.529Z,40.76
2018-04-24T08:05:06.477Z,40.17
2018-04-24T08:07:32.428Z,42.38
2018-04-24T08:09:58.374Z,40.07
2018-04-24T08:12:24.320Z,39.40
2018-04-24T08:14:50.289Z,39.57
2018-04-24T08:17:16.221Z,40.07
2018-04-24T08:19:42.141Z,41.44
2018-04-24T08:22:08.085Z,40.00
2018-04-24T08:24:34.033Z,40.32
2018-04-24T08:26:59.979Z,39.83
2018-04-24T08:29:25.913Z,40.88
2018-04-24T08:31:51.855Z,43.12
2018-04-24T08:34:17.810Z,44.07
2018-04-24T08:36:43.764Z,44.13
2018-04-24T08:39:09.720Z,44.42
2018-04-24T08:41:35.683Z,44.84
2018-04-24T08:44:01.605Z,44.97
2018-04-24T08:46:27.563Z,45.36
2018-04-24T08:48:53.517Z,45.32
2018-04-24T08:51:19.461Z,44.36
2018-04-24T08:53:45.405Z,44.87
2018-04-24T08:56:11.370Z,45.76
2018-04-24T08:58:37.324Z,46.59
2018-04-24T09:01:03.265Z,46.44
2018-04-24T09:03:29.186Z,47.08
2018-04-24T09:05:55.109Z,46.53
2018-04-24T09:08:22.108Z,46.22
2018-04-24T09:10:48.057Z,46.67
2018-04-24T09:13:13.987Z,48.82
2018-04-24T09:15:39.921Z,48.41
2018-04-24T09:18:05.872Z,47.92
2018-04-24T09:20:31.788Z,47.52
2018-04-24T09:22:59.789Z,47.54
2018-04-24T09:25:25.722Z,47.50
2018-04-24T09:27:51.642Z,47.83
2018-04-24T09:30:17.603Z,47.59
2018-04-24T09:32:43.528Z,46.88
2018-04-24T09:37:44.879Z,46.60
2018-04-24T09:40:10.825Z,46.29
2018-04-24T09:42:36.774Z,46.01
2018-04-24T09:45:02.765Z,46.24
2018-04-24T09:47:28.722Z,45.28
2018-04-24T09:49:57.988Z,46.70
2018-04-24T09:52:23.943Z,46.34
2018-04-24T09:54:49.899Z,44.21
2018-04-24T09:57:16.827Z,44.32
2018-04-24T09:59:46.206Z,45.02
2018-04-24T10:02:14.124Z,45.21
2018-04-24T10:04:41.061Z,44.63
2018-04-24T10:07:12.104Z,44.17
2018-04-24T10:09:38.036Z,43.92
2018-04-24T10:17:07.225Z,43.40
2018-04-24T10:24:39.125Z,43.94
2018-04-24T10:27:05.045Z,43.85
2018-04-24T10:29:30.965Z,43.13
2018-04-24T10:31:56.923Z,43.11
2018-04-24T10:34:22.888Z,43.51
2018-04-24T10:36:48.807Z,43.11
2018-04-24T10:39:14.746Z,42.75
2018-04-24T10:41:40.707Z,43.30
2018-04-24T10:44:06.647Z,43.38
2018-04-24T10:46:32.590Z,44.42
2018-04-24T10:48:58.522Z,44.00
2018-04-24T10:51:24.451Z,44.36
2018-04-24T10:53:50.379Z,44.43
2018-04-24T10:56:16.331Z,42.18
2018-04-24T10:58:42.287Z,42.03
2018-04-24T11:01:08.240Z,42.03
2018-04-24T11:03:34.177Z,41.02
2018-04-24T11:06:00.113Z,41.11
2018-04-24T11:08:26.030Z,41.51
2018-04-24T11:10:51.969Z,42.61
2018-04-24T11:13:17.915Z,41.40
2018-04-24T11:15:43.857Z,40.89
2018-04-24T11:18:10.118Z,41.52
2018-04-24T11:20:36.056Z,41.56
2018-04-24T11:23:01.986Z,41.88
2018-04-24T11:25:27.939Z,42.19
2018-04-24T11:27:53.893Z,42.74
2018-04-24T11:30:19.899Z,42.36
2018-04-24T11:32:45.809Z,43.03
2018-04-24T11:35:11.753Z,41.59
2018-04-24T11:37:37.697Z,43.60
2018-04-24T11:40:03.621Z,43.13
2018-04-24T11:42:29.536Z,42.85
2018-04-24T11:44:55.492Z,42.11
2018-04-24T11:47:21.418Z,42.16
2018-04-24T11:49:47.353Z,43.00
2018-04-24T11:52:13.281Z,41.83
2018-04-24T11:54:39.201Z,41.75
2018-04-24T11:57:05.143Z,41.61
2018-04-24T11:59:31.088Z,40.63
2018-04-24T12:01:57.017Z,41.10
2018-04-24T12:04:22.971Z,41.09
2018-04-24T12:06:48.920Z,41.40
2018-04-24T12:09:14.845Z,41.10
2018-04-24T12:11:40.766Z,42.17
2018-04-24T12:14:06.724Z,42.25
2018-04-24T12:16:32.680Z,40.68
2018-04-24T12:18:58.642Z,40.11
2018-04-24T12:21:24.588Z,40.56
2018-04-24T12:23:50.531Z,40.10
2018-04-24T12:26:16.476Z,40.47
2018-04-24T12:28:42.420Z,40.98
2018-04-24T12:31:08.372Z,40.92
2018-04-24T12:33:34.316Z,41.46
2018-04-24T12:36:00.242Z,41.08
2018-04-24T12:38:26.181Z,40.05
2018-04-24T12:40:52.136Z,39.44
2018-04-24T12:43:18.060Z,40.11
2018-04-24T12:45:43.989Z,40.44
2018-04-24T12:48:10.323Z,40.66
2018-04-24T12:50:36.273Z,40.12
2018-04-24T12:53:02.204Z,39.80
2018-04-24T12:55:28.146Z,41.10
2018-04-24T12:57:54.165Z,41.71
2018-04-24T13:00:20.075Z,41.34
2018-04-24T13:02:46.014Z,41.11
2018-04-24T13:05:11.940Z,41.63
2018-04-24T13:07:37.905Z,40.19
2018-04-24T13:10:03.852Z,39.64
2018-04-24T13:12:29.799Z,41.24
2018-04-24T13:14:55.726Z,40.93
2018-04-24T13:17:21.687Z,41.50
2018-04-24T13:19:47.614Z,41.89
2018-04-24T13:22:13.590Z,42.11
2018-04-24T13:24:39.542Z,42.18
2018-04-24T13:27:05.494Z,42.84
2018-04-24T13:29:31.444Z,42.17
2018-04-24T13:31:57.417Z,42.18
2018-04-24T13:34:23.341Z,42.14
2018-04-24T13:36:49.276Z,42.20
2018-04-24T13:39:15.213Z,41.96
2018-04-24T13:41:41.148Z,41.69
2018-04-24T13:44:07.082Z,42.39
2018-04-24T13:46:33.044Z,43.08
2018-04-24T13:48:59.075Z,42.99
2018-04-24T13:51:24.969Z,41.70
2018-04-24T13:53:50.919Z,42.90
2018-04-24T13:56:16.840Z,42.79
2018-04-24T13:58:42.816Z,41.57
2018-04-24T14:01:08.762Z,41.48
2018-04-24T14:03:34.718Z,41.90
2018-04-24T14:06:00.661Z,42.00
2018-04-24T14:08:26.601Z,42.88
2018-04-24T14:10:52.525Z,41.44
2018-04-24T14:13:18.488Z,42.80
2018-04-24T14:15:44.416Z,42.64
2018-04-24T14:18:10.367Z,42.11
2018-04-24T14:20:36.317Z,42.51
2018-04-24T14:23:02.253Z,42.71
2018-04-24T14:25:28.194Z,42.41
2018-04-24T14:27:54.172Z,42.86
2018-04-24T14:30:20.101Z,41.71
2018-04-24T14:32:46.039Z,40.81
2018-04-24T14:35:11.965Z,41.69
2018-04-24T14:37:37.907Z,42.33
2018-04-24T14:40:03.861Z,42.06
2018-04-24T14:42:29.804Z,42.99
2018-04-24T14:44:55.752Z,41.94
2018-04-24T14:47:21.716Z,42.00
2018-04-24T14:49:47.634Z,41.65
2018-04-24T14:52:13.640Z,42.13
2018-04-24T14:54:39.585Z,42.44
2018-04-24T14:57:05.550Z,42.59
2018-04-24T14:59:31.475Z,42.25
2018-04-24T15:01:57.410Z,42.55
2018-04-24T15:04:23.345Z,41.48
2018-04-24T15:06:49.264Z,41.84
2018-04-24T15:09:15.195Z,41.69
2018-04-24T15:11:41.123Z,41.55
2018-04-24T15:14:07.053Z,42.33
2018-04-24T15:16:33.000Z,41.68
2018-04-24T15:18:58.990Z,42.61
2018-04-24T15:21:24.937Z,42.46
2018-04-24T15:23:50.881Z,42.95
2018-04-24T15:26:16.809Z,42.88
2018-04-24T15:28:42.756Z,42.18
2018-04-24T15:31:08.771Z,42.55
2018-04-24T15:33:34.713Z,42.93
2018-04-24T15:36:00.660Z,42.92
2018-04-24T15:38:26.607Z,42.91
2018-04-24T15:40:52.552Z,42.48
2018-04-24T15:43:18.516Z,42.85
2018-04-24T15:45:44.482Z,43.61
2018-04-24T15:48:10.482Z,43.08
2018-04-24T15:50:36.448Z,43.79
2018-04-24T15:53:02.390Z,44.23
2018-04-24T15:55:28.337Z,43.81
2018-04-24T15:57:54.296Z,43.88
2018-04-24T16:00:20.230Z,43.99
2018-04-24T16:02:46.208Z,44.46
2018-04-24T16:05:12.174Z,44.66
2018-04-24T16:07:38.137Z,44.90
2018-04-24T16:10:04.093Z,45.38
2018-04-24T16:12:30.026Z,45.62
2018-04-24T16:14:55.977Z,45.50
2018-04-24T16:17:21.913Z,45.81
2018-04-24T16:19:47.851Z,45.71
2018-04-24T16:22:13.777Z,45.65
2018-04-24T16:24:39.703Z,45.98
2018-04-24T16:27:05.655Z,46.04
2018-04-24T16:29:31.605Z,46.29
2018-04-24T16:31:57.533Z,46.41
2018-04-24T16:34:23.491Z,45.86
2018-04-24T16:36:49.548Z,45.34
2018-04-24T16:39:15.508Z,45.57
2018-04-24T16:41:41.441Z,45.70
2018-04-24T16:44:07.513Z,45.80
2018-04-24T16:46:33.535Z,45.88
2018-04-24T16:48:59.464Z,45.71
2018-04-24T16:51:25.398Z,47.14
2018-04-24T16:53:51.425Z,46.62
2018-04-24T16:56:17.439Z,47.59
2018-04-24T16:58:43.346Z,45.74
2018-04-24T17:01:09.358Z,45.93
2018-04-24T17:03:35.324Z,46.52
2018-04-24T17:06:01.300Z,46.64
2018-04-24T17:08:27.241Z,46.63
2018-04-24T17:10:53.258Z,45.95
2018-04-24T17:13:19.235Z,46.32
2018-04-24T17:15:45.179Z,46.15
2018-04-24T17:18:11.104Z,46.35
2018-04-24T17:20:37.053Z,46.43
2018-04-24T17:23:02.997Z,46.99
2018-04-24T17:25:29.073Z,47.49
2018-04-24T17:27:55.005Z,47.27
2018-04-24T17:30:20.995Z,47.53
2018-04-24T17:32:46.945Z,47.28
2018-04-24T17:35:12.885Z,47.57
2018-04-24T17:37:38.826Z,47.04
2018-04-24T17:40:04.792Z,47.81
2018-04-24T17:42:30.743Z,47.23
2018-04-24T17:44:56.708Z,46.73
2018-04-24T17:47:22.686Z,46.83
2018-04-24T17:49:48.639Z,47.21
2018-04-24T17:52:14.587Z,46.89
2018-04-24T17:54:40.524Z,48.60
2018-04-24T17:57:06.676Z,49.63
2018-04-24T17:59:32.625Z,51.11
2018-04-24T18:01:58.602Z,49.88
2018-04-24T18:04:24.570Z,48.71
2018-04-24T18:06:50.524Z,49.32
2018-04-24T18:09:16.549Z,48.90
2018-04-24T18:11:42.505Z,49.19
2018-04-24T18:14:08.465Z,50.61
2018-04-24T18:16:34.415Z,49.27
2018-04-24T18:19:00.366Z,49.03
2018-04-24T18:21:26.295Z,48.98
2018-04-24T18:23:52.232Z,49.47
2018-04-24T18:26:18.173Z,49.93
2018-04-24T18:28:44.109Z,50.56
2018-04-24T18:31:10.229Z,50.58
2018-04-24T18:33:36.194Z,50.46
2018-04-24T18:36:02.142Z,51.05
2018-04-24T18:38:28.128Z,51.46
2018-04-24T18:40:54.149Z,51.16
2018-04-24T18:43:20.187Z,50.95
2018-04-24T18:45:46.425Z,51.22
2018-04-24T18:48:12.508Z,51.52
2018-04-24T18:50:38.449Z,51.78
2018-04-24T18:53:04.479Z,52.70
2018-04-24T18:55:30.485Z,52.78
2018-04-24T18:57:56.470Z,53.59
2018-04-24T19:00:22.414Z,52.27
2018-04-24T19:02:48.352Z,52.71
2018-04-24T19:05:14.329Z,52.48
2018-04-24T19:07:40.309Z,51.90
2018-04-24T19:10:06.282Z,51.56
2018-04-24T19:12:32.240Z,50.87
2018-04-24T19:14:58.182Z,50.47
2018-04-24T19:17:24.097Z,51.35
2018-04-24T19:19:50.073Z,53.00
2018-04-24T19:22:16.033Z,53.63
2018-04-24T19:24:42.015Z,52.97
2018-04-24T19:27:07.957Z,52.84
2018-04-24T19:29:33.924Z,53.09
2018-04-24T19:31:59.871Z,53.72
2018-04-24T19:34:25.838Z,55.17
2018-04-24T19:36:51.770Z,56.19
2018-04-24T19:39:17.716Z,56.49
2018-04-24T19:41:43.671Z,55.92
2018-04-24T19:44:09.611Z,56.21
2018-04-24T19:46:35.563Z,56.97
2018-04-24T19:49:01.529Z,56.43
2018-04-24T19:51:27.529Z,56.67
2018-04-24T19:53:53.465Z,57.88
2018-04-24T19:56:19.415Z,57.89
2018-04-24T19:58:45.420Z,57.75
2018-04-24T20:01:11.320Z,57.18
2018-04-24T20:03:37.293Z,58.14
2018-04-24T20:06:03.245Z,57.75
2018-04-24T20:11:01.320Z,59.46
2018-04-24T20:13:27.292Z,59.63
2018-04-24T20:15:53.243Z,59.08
2018-04-24T20:18:19.220Z,59.81
2018-04-24T20:20:45.198Z,59.79
2018-04-24T20:23:11.184Z,59.67
2018-04-24T20:25:37.153Z,59.31
2018-04-24T20:28:03.107Z,59.45
2018-04-24T20:30:29.080Z,60.26
2018-04-24T20:32:55.019Z,59.96
2018-04-24T20:35:20.970Z,59.92
2018-04-24T20:37:46.925Z,60.00
2018-04-24T20:40:12.876Z,60.23
2018-04-24T20:42:38.856Z,60.21
2018-04-24T20:45:04.791Z,61.05
2018-04-24T20:47:30.812Z,60.71
2018-04-24T20:49:56.755Z,59.92
2018-04-24T20:52:22.712Z,60.07
2018-04-24T20:54:48.649Z,60.12
2018-04-24T20:57:14.589Z,60.56
2018-04-24T20:59:40.519Z,59.91
2018-04-24T21:02:06.480Z,60.29
2018-04-24T21:04:32.430Z,60.83
2018-04-24T21:06:58.372Z,61.13
2018-04-24T21:09:24.310Z,61.35
2018-04-24T21:11:50.274Z,60.65
2018-04-24T21:14:16.207Z,61.41
2018-04-24T21:16:42.150Z,61.87
2018-04-24T21:19:08.109Z,60.60
2018-04-24T21:24:06.806Z,62.57
2018-04-24T21:26:32.751Z,61.78
2018-04-24T21:28:58.701Z,61.41
2018-04-24T21:31:24.650Z,61.66
2018-04-24T21:33:50.601Z,62.05
2018-04-24T21:36:16.748Z,62.27
2018-04-24T21:38:42.745Z,61.66
2018-04-24T21:41:08.651Z,62.19
2018-04-24T21:43:34.578Z,61.96
2018-04-24T21:46:00.527Z,62.04
2018-04-24T21:48:26.476Z,61.41
2018-04-24T21:50:52.423Z,61.48
2018-04-24T21:53:18.362Z,62.05
2018-04-24T21:55:44.296Z,61.53
2018-04-24T21:58:10.443Z,62.53
2018-04-24T22:00:36.369Z,62.77
2018-04-24T22:03:02.356Z,61.92
2018-04-24T22:05:28.293Z,62.48
2018-04-24T22:07:54.247Z,62.70
2018-04-24T22:10:20.174Z,62.79
2018-04-24T22:12:46.110Z,62.79
2018-04-24T22:15:12.052Z,62.86
2018-04-24T22:17:37.996Z,61.87
2018-04-24T22:20:03.943Z,61.47
2018-04-24T22:22:29.897Z,61.60
2018-04-24T22:24:55.829Z,61.65
2018-04-24T22:27:21.762Z,61.13
2018-04-24T22:29:47.699Z,62.08
2018-04-24T22:32:13.642Z,61.83
2018-04-24T22:34:39.598Z,62.04
2018-04-24T22:37:05.566Z,61.77
2018-04-24T22:39:31.486Z,61.73
2018-04-24T22:41:57.440Z,61.98
2018-04-24T22:44:23.377Z,61.37
2018-04-24T22:46:49.343Z,62.10
2018-04-24T22:49:15.291Z,63.41
2018-04-24T22:51:41.213Z,63.29
2018-04-24T22:54:07.137Z,63.91
2018-04-24T22:56:33.088Z,64.51
2018-04-24T22:58:59.022Z,63.91
2018-04-24T23:01:24.971Z,63.15
2018-04-24T23:03:50.912Z,62.41
2018-04-24T23:06:16.868Z,63.00
2018-04-24T23:08:42.813Z,64.10
2018-04-24T23:11:08.738Z,63.73
2018-04-24T23:13:34.685Z,64.38
2018-04-24T23:16:00.629Z,64.62
2018-04-24T23:18:26.605Z,65.01
2018-04-24T23:20:52.534Z,65.01
2018-04-24T23:23:18.472Z,64.91
2018-04-24T23:25:44.418Z,64.87
2018-04-24T23:28:10.549Z,65.47
2018-04-24T23:30:36.501Z,65.24
2018-04-24T23:33:02.461Z,65.40
2018-04-24T23:35:28.409Z,65.66
2018-04-24T23:37:54.368Z,66.26
2018-04-24T23:40:20.315Z,66.75
2018-04-24T23:42:46.292Z,66.66
2018-04-24T23:45:12.237Z,65.04
2018-04-24T23:47:38.192Z,65.13
2018-04-24T23:50:04.114Z,66.20
2018-04-24T23:52:30.039Z,66.03
2018-04-24T23:54:55.961Z,65.67
2018-04-24T23:57:21.913Z,66.40
2018-04-24T23:59:47.847Z,66.19
